Flight Track Log - Related Links

Times and Time Zones

All times are in EST time to prevent confusion due to time zone crossing. See the UCA596 flight status page for this flight to view local times or setup timezone preferences in your user account.

Time Position Orientation Groundspeed Altitude Reporting Facility
EST Latitude Longitude Course Direction KTS MPH feet Rate Location/Type
Mon 07:05:35 PM 38.9667 -77.5333 322° Northwest 159 183 2,500  Level Potomac TRACON
Mon 07:06:35 PM 39.0000 -77.5667 322° Northwest 197 227 3,900 1,300 Climbing Potomac TRACON
Mon 07:07:35 PM 39.0667 -77.5667 360° North 217 250 5,100 1,289 Climbing Potomac TRACON
Mon 07:08:36 PM 39.1167 -77.5833 346° North 219 252 6,500 1,388 Climbing Potomac TRACON
Mon 07:09:36 PM 39.1833 -77.6000 349° North 218 251 7,900 1,493 Climbing Potomac TRACON
Mon 07:12:05 PM 39.3225 -77.5556 14° North 222 255 11,700 1,579 Climbing Washington Center
Mon 07:13:05 PM 39.3769 -77.5381 14° North 215 247 13,400 1,664 Climbing Washington Center
Mon 07:14:04 PM 39.4294 -77.5233 12° North 197 227 15,000 1,600 Climbing Washington Center
Mon 07:15:05 PM 39.4839 -77.5061 14° North 197 227 16,600 1,231 Climbing Washington Center
Mon 07:16:40 PM 39.5744 -77.4806 12° North 202 232 18,200 929 Climbing New York Center
Mon 07:17:40 PM 39.6236 -77.4583 19° North 207 238 19,000 400 Climbing New York Center
Mon 07:18:40 PM 39.6972 -77.4492 North 229 264 19,000  Level New York Center
Mon 07:19:40 PM 39.7639 -77.4503 359° North 254 292 19,000  Level New York Center
Mon 07:20:40 PM 39.8472 -77.4500 360° North 259 298 19,000  Level New York Center
Mon 07:21:40 PM 39.9222 -77.4517 359° North 270 311 19,000  Level New York Center
Mon 07:22:40 PM 40.0017 -77.4483 North 276 318 19,000  Level New York Center
Mon 07:23:40 PM 40.0789 -77.4478 360° North 276 318 19,000  Level New York Center
Mon 07:24:40 PM 40.1581 -77.4472 360° North 276 318 19,000  Level New York Center
Mon 07:25:40 PM 40.2375 -77.4439 North 276 318 19,000  Level New York Center
Mon 07:26:40 PM 40.3147 -77.4431 360° North 276 318 19,000  Level New York Center
Mon 07:27:40 PM 40.3939 -77.4425 360° North 276 318 19,000  Level New York Center
Mon 07:28:40 PM 40.4711 -77.4447 359° North 276 318 19,000  Level New York Center
Mon 07:29:40 PM 40.5503 -77.4442 360° North 276 318 19,000  Level New York Center
Mon 07:30:40 PM 40.6256 -77.4022 23° Northeast 276 318 19,000  Level New York Center
Mon 07:31:40 PM 40.6956 -77.3406 34° Northeast 298 343 19,000  Level New York Center
Mon 07:32:40 PM 40.7569 -77.2861 34° Northeast 298 343 19,000  Level New York Center
Mon 07:33:40 PM 40.8292 -77.2244 33° Northeast 298 343 19,000  Level New York Center
Mon 07:34:40 PM 40.8992 -77.1622 34° Northeast 298 343 19,000  Level New York Center
Mon 07:35:40 PM 40.9692 -77.1031 33° Northeast 298 343 19,000  Level New York Center
Mon 07:36:40 PM 41.0389 -77.0433 33° Northeast 298 343 19,000  Level New York Center
Mon 07:37:40 PM 41.1092 -76.9783 35° Northeast 298 343 19,000 -150 Level New York Center
Mon 07:38:40 PM 41.1769 -76.9183 34° Northeast 298 343 18,700 -500 Descending New York Center
Mon 07:39:40 PM 41.2489 -76.8531 34° Northeast 298 343 18,000 -550 Descending New York Center
Mon 07:40:40 PM 41.3167 -76.7928 34° Northeast 298 343 17,600 -550 Descending New York Center
Mon 07:41:40 PM 41.3864 -76.7300 34° Northeast 298 343 16,900 -700 Descending New York Center
Mon 07:42:40 PM 41.4564 -76.6669 34° Northeast 298 343 16,200 -700 Descending New York Center
Mon 07:43:40 PM 41.5261 -76.6039 34° Northeast 298 343 15,500 -700 Descending New York Center
Mon 07:44:40 PM 41.6025 -76.5328 35° Northeast 293 337 14,800 -700 Descending New York Center
Mon 07:45:40 PM 41.6700 -76.4719 34° Northeast 293 337 14,100 -800 Descending New York Center
Mon 07:46:40 PM 41.7414 -76.4114 32° Northeast 298 343 13,200 -900 Descending New York Center
Mon 07:47:40 PM 41.8003 -76.3550 36° Northeast 288 331 12,300 -1,000 Descending New York Center
Mon 07:48:40 PM 41.8669 -76.3106 26° Northeast 272 313 11,200 -1,250 Descending New York Center
Mon 07:49:40 PM 41.9442 -76.2614 25° Northeast 272 313 9,800 -1,250 Descending New York Center
Mon 07:50:40 PM 42.0153 -76.2142 26° Northeast 272 313 8,700 -1,150 Descending New York Center
Mon 07:51:40 PM 42.0858 -76.1697 25° Northeast 272 313 7,500 -1,250 Descending New York Center
Mon 07:52:40 PM 42.1503 -76.1272 26° Northeast 272 313 6,200 -1,200 Descending New York Center
Mon 07:53:40 PM 42.2061 -76.0900 26° Northeast 250 288 5,100 -1,000 Descending New York Center
Mon 07:54:40 PM 42.2622 -76.0917 359° North 213 245 4,200 -750 Descending New York Center
Mon 07:55:40 PM 42.2747 -76.0422 71° East 146 168 3,600 -650 Descending New York Center
Mon 07:56:40 PM 42.2528 -76.0208 144° Southeast 66 76 2,900 -700 Descending New York Center
Mon 07:57:40 PM 42.2350 -75.9997 139° Southeast 72 83 2,200 4,050 Descending New York Center
Mon 07:58:40 PM 42.2297 -75.9769 107° East 72 83 11,000 4,400 Climbing New York Center
Mon 07:59:40 PM 42.2203 -75.9567 122° Southeast 72 83 11,000  Level New York Center
Mon 08:00:40 PM 42.2108 -75.9336 119° Southeast 72 83 11,000  Level New York Center
Mon 08:02:00 PM 42.2000 -75.9667 North  Level FlightAware Approximate

Login

Don't have an account? Register now (free) for customized features, flight alerts, and more!